Terminal Aerodrome Forecast
Issued by NWS

Current Version | Previous Version | Text Only | Print | Product List | Glossary On
Versions: 1 2 3 4 5 6 7 8 9 10 11 12 13 14 15 16 17 18 19 20 21 22
000
FTUS43 KMKX 251504 AAA
TAFENW
TAF AMD
KENW 251504Z 2515/2612 20005KT P6SM BKN250
     FM251700 14009KT P6SM SCT060 BKN200
     FM252000 13010KT P6SM VCTS SCT050 BKN100CB
     FM252300 14008KT P6SM VCTS BKN050CB
      TEMPO 2523/2603 4SM TSRA BKN040CB
     FM260300 17006KT P6SM SCT040 BKN060
     FM260600 20007KT 3SM BR SCT005 BKN060=

USA.gov is the U.S. government's official web portal to all federal, state and local government web resources and services.